sensor_id;sensor_type;location;lat;lon;timestamp;P1;durP1;ratioP1;P2;durP2;ratioP2
11414;SDS011;5763;42.714;23.244;2023-08-06T00:00:28;3.10;;;2.65;;
11414;SDS011;5763;42.714;23.244;2023-08-06T00:02:55;2.47;;;2.28;;
11414;SDS011;5763;42.714;23.244;2023-08-06T00:05:22;4.15;;;2.60;;
11414;SDS011;5763;42.714;23.244;2023-08-06T00:07:50;3.15;;;2.63;;
11414;SDS011;5763;42.714;23.244;2023-08-06T00:10:17;2.97;;;2.45;;
11414;SDS011;5763;42.714;23.244;2023-08-06T00:12:44;2.58;;;2.38;;
11414;SDS011;5763;42.714;23.244;2023-08-06T00:15:11;2.38;;;2.17;;
11414;SDS011;5763;42.714;23.244;2023-08-06T00:17:38;3.63;;;2.38;;
11414;SDS011;5763;42.714;23.244;2023-08-06T00:20:05;2.50;;;2.30;;
11414;SDS011;5763;42.714;23.244;2023-08-06T00:22:33;2.97;;;2.25;;
11414;SDS011;5763;42.714;23.244;2023-08-06T00:25:03;2.50;;;2.30;;
11414;SDS011;5763;42.714;23.244;2023-08-06T00:27:30;2.65;;;2.30;;
11414;SDS011;5763;42.714;23.244;2023-08-06T00:29:57;3.00;;;2.13;;
11414;SDS011;5763;42.714;23.244;2023-08-06T00:32:24;4.25;;;2.30;;
11414;SDS011;5763;42.714;23.244;2023-08-06T00:34:51;3.63;;;2.50;;
11414;SDS011;5763;42.714;23.244;2023-08-06T00:37:18;3.25;;;2.50;;
11414;SDS011;5763;42.714;23.244;2023-08-06T00:39:45;2.67;;;2.45;;
11414;SDS011;5763;42.714;23.244;2023-08-06T00:42:13;3.58;;;2.65;;
11414;SDS011;5763;42.714;23.244;2023-08-06T00:44:41;2.63;;;2.42;;
11414;SDS011;5763;42.714;23.244;2023-08-06T00:47:08;3.30;;;2.63;;
11414;SDS011;5763;42.714;23.244;2023-08-06T00:49:35;3.05;;;2.75;;
11414;SDS011;5763;42.714;23.244;2023-08-06T00:52:03;3.25;;;2.95;;
11414;SDS011;5763;42.714;23.244;2023-08-06T00:54:31;4.63;;;3.30;;
11414;SDS011;5763;42.714;23.244;2023-08-06T00:56:58;2.80;;;2.60;;
11414;SDS011;5763;42.714;23.244;2023-08-06T00:59:28;3.42;;;2.97;;
11414;SDS011;5763;42.714;23.244;2023-08-06T01:01:57;3.40;;;3.10;;
11414;SDS011;5763;42.714;23.244;2023-08-06T01:04:23;3.03;;;2.70;;
11414;SDS011;5763;42.714;23.244;2023-08-06T01:06:52;3.83;;;3.00;;
11414;SDS011;5763;42.714;23.244;2023-08-06T01:09:31;4.28;;;2.88;;
11414;SDS011;5763;42.714;23.244;2023-08-06T01:12:05;2.97;;;2.67;;
11414;SDS011;5763;42.714;23.244;2023-08-06T01:14:41;5.40;;;3.00;;
11414;SDS011;5763;42.714;23.244;2023-08-06T01:17:17;3.75;;;2.80;;
11414;SDS011;5763;42.714;23.244;2023-08-06T01:19:44;4.10;;;3.03;;
11414;SDS011;5763;42.714;23.244;2023-08-06T01:22:12;3.55;;;3.20;;
11414;SDS011;5763;42.714;23.244;2023-08-06T01:24:39;4.78;;;3.03;;
11414;SDS011;5763;42.714;23.244;2023-08-06T01:27:14;4.53;;;3.28;;
11414;SDS011;5763;42.714;23.244;2023-08-06T01:29:49;3.33;;;3.03;;
11414;SDS011;5763;42.714;23.244;2023-08-06T01:32:22;3.67;;;2.83;;
11414;SDS011;5763;42.714;23.244;2023-08-06T01:34:51;3.58;;;3.00;;
11414;SDS011;5763;42.714;23.244;2023-08-06T01:37:21;4.13;;;3.15;;
11414;SDS011;5763;42.714;23.244;2023-08-06T01:39:49;4.15;;;2.72;;
11414;SDS011;5763;42.714;23.244;2023-08-06T01:42:16;4.93;;;3.50;;
11414;SDS011;5763;42.714;23.244;2023-08-06T01:44:43;4.15;;;3.47;;
11414;SDS011;5763;42.714;23.244;2023-08-06T01:47:09;3.78;;;3.22;;
11414;SDS011;5763;42.714;23.244;2023-08-06T01:49:36;5.22;;;3.50;;
11414;SDS011;5763;42.714;23.244;2023-08-06T01:52:03;4.53;;;3.53;;
11414;SDS011;5763;42.714;23.244;2023-08-06T01:54:32;4.10;;;3.70;;
11414;SDS011;5763;42.714;23.244;2023-08-06T01:56:58;5.65;;;3.60;;
11414;SDS011;5763;42.714;23.244;2023-08-06T01:59:25;4.60;;;3.85;;
11414;SDS011;5763;42.714;23.244;2023-08-06T02:01:52;4.63;;;3.38;;
11414;SDS011;5763;42.714;23.244;2023-08-06T02:04:18;5.30;;;3.70;;
11414;SDS011;5763;42.714;23.244;2023-08-06T02:06:45;4.97;;;3.88;;
11414;SDS011;5763;42.714;23.244;2023-08-06T02:09:12;4.97;;;3.63;;
11414;SDS011;5763;42.714;23.244;2023-08-06T02:11:40;4.03;;;2.92;;
11414;SDS011;5763;42.714;23.244;2023-08-06T02:14:07;3.53;;;3.13;;
11414;SDS011;5763;42.714;23.244;2023-08-06T02:16:33;5.05;;;3.72;;
11414;SDS011;5763;42.714;23.244;2023-08-06T02:19:00;3.85;;;3.28;;
11414;SDS011;5763;42.714;23.244;2023-08-06T02:21:27;4.18;;;3.20;;
11414;SDS011;5763;42.714;23.244;2023-08-06T02:23:53;7.15;;;4.15;;
11414;SDS011;5763;42.714;23.244;2023-08-06T02:26:20;3.97;;;3.50;;
11414;SDS011;5763;42.714;23.244;2023-08-06T02:28:48;4.95;;;3.63;;
11414;SDS011;5763;42.714;23.244;2023-08-06T02:31:15;7.28;;;3.92;;
11414;SDS011;5763;42.714;23.244;2023-08-06T02:33:42;6.15;;;4.07;;
11414;SDS011;5763;42.714;23.244;2023-08-06T02:36:08;6.10;;;3.70;;
11414;SDS011;5763;42.714;23.244;2023-08-06T02:38:35;5.43;;;3.78;;
11414;SDS011;5763;42.714;23.244;2023-08-06T02:41:02;4.07;;;3.70;;
11414;SDS011;5763;42.714;23.244;2023-08-06T02:43:29;4.65;;;3.33;;
11414;SDS011;5763;42.714;23.244;2023-08-06T02:45:57;3.92;;;3.10;;
11414;SDS011;5763;42.714;23.244;2023-08-06T02:48:25;3.45;;;3.15;;
11414;SDS011;5763;42.714;23.244;2023-08-06T02:50:52;4.53;;;2.83;;
11414;SDS011;5763;42.714;23.244;2023-08-06T02:53:18;3.50;;;3.20;;
11414;SDS011;5763;42.714;23.244;2023-08-06T02:55:45;3.58;;;3.25;;
11414;SDS011;5763;42.714;23.244;2023-08-06T02:58:13;3.85;;;3.10;;
11414;SDS011;5763;42.714;23.244;2023-08-06T03:00:41;5.40;;;4.90;;
11414;SDS011;5763;42.714;23.244;2023-08-06T03:03:09;5.32;;;3.47;;
11414;SDS011;5763;42.714;23.244;2023-08-06T03:05:36;4.53;;;3.50;;
11414;SDS011;5763;42.714;23.244;2023-08-06T03:08:03;5.70;;;3.80;;
11414;SDS011;5763;42.714;23.244;2023-08-06T03:10:30;4.63;;;3.50;;
11414;SDS011;5763;42.714;23.244;2023-08-06T03:12:56;3.50;;;3.20;;
11414;SDS011;5763;42.714;23.244;2023-08-06T03:15:23;3.53;;;2.95;;
11414;SDS011;5763;42.714;23.244;2023-08-06T03:17:50;3.10;;;2.90;;
11414;SDS011;5763;42.714;23.244;2023-08-06T03:20:18;3.20;;;2.42;;
11414;SDS011;5763;42.714;23.244;2023-08-06T03:22:44;2.78;;;2.58;;
11414;SDS011;5763;42.714;23.244;2023-08-06T03:25:11;3.17;;;2.35;;
11414;SDS011;5763;42.714;23.244;2023-08-06T03:27:38;3.58;;;2.80;;
11414;SDS011;5763;42.714;23.244;2023-08-06T03:30:05;5.53;;;3.05;;
11414;SDS011;5763;42.714;23.244;2023-08-06T03:32:33;4.43;;;3.40;;
11414;SDS011;5763;42.714;23.244;2023-08-06T03:34:59;5.13;;;4.07;;
11414;SDS011;5763;42.714;23.244;2023-08-06T03:37:28;4.35;;;3.95;;
11414;SDS011;5763;42.714;23.244;2023-08-06T03:39:54;4.20;;;3.80;;
11414;SDS011;5763;42.714;23.244;2023-08-06T03:42:21;4.35;;;3.80;;
11414;SDS011;5763;42.714;23.244;2023-08-06T03:44:48;4.95;;;4.18;;
11414;SDS011;5763;42.714;23.244;2023-08-06T03:47:14;4.40;;;3.88;;
11414;SDS011;5763;42.714;23.244;2023-08-06T03:49:41;4.80;;;3.80;;
11414;SDS011;5763;42.714;23.244;2023-08-06T03:52:08;4.90;;;4.05;;
11414;SDS011;5763;42.714;23.244;2023-08-06T03:54:36;5.22;;;3.33;;
11414;SDS011;5763;42.714;23.244;2023-08-06T03:57:04;4.28;;;3.60;;
11414;SDS011;5763;42.714;23.244;2023-08-06T03:59:31;4.00;;;3.30;;
11414;SDS011;5763;42.714;23.244;2023-08-06T04:01:58;3.17;;;2.88;;
11414;SDS011;5763;42.714;23.244;2023-08-06T04:04:24;4.07;;;3.10;;
11414;SDS011;5763;42.714;23.244;2023-08-06T04:06:51;3.88;;;3.35;;
11414;SDS011;5763;42.714;23.244;2023-08-06T04:09:18;4.65;;;3.50;;
11414;SDS011;5763;42.714;23.244;2023-08-06T04:11:46;5.22;;;3.92;;
11414;SDS011;5763;42.714;23.244;2023-08-06T04:14:13;4.57;;;3.38;;
11414;SDS011;5763;42.714;23.244;2023-08-06T04:16:39;3.75;;;3.38;;
11414;SDS011;5763;42.714;23.244;2023-08-06T04:19:06;4.10;;;3.70;;
11414;SDS011;5763;42.714;23.244;2023-08-06T04:21:33;3.97;;;3.13;;
11414;SDS011;5763;42.714;23.244;2023-08-06T04:23:59;4.40;;;3.47;;
11414;SDS011;5763;42.714;23.244;2023-08-06T04:26:26;5.47;;;3.33;;
11414;SDS011;5763;42.714;23.244;2023-08-06T04:28:54;3.20;;;2.90;;
11414;SDS011;5763;42.714;23.244;2023-08-06T04:31:21;3.00;;;2.80;;
11414;SDS011;5763;42.714;23.244;2023-08-06T04:33:48;3.83;;;2.63;;
11414;SDS011;5763;42.714;23.244;2023-08-06T04:36:15;4.07;;;3.00;;
11414;SDS011;5763;42.714;23.244;2023-08-06T04:38:41;4.13;;;2.78;;
11414;SDS011;5763;42.714;23.244;2023-08-06T04:41:10;4.40;;;3.15;;
11414;SDS011;5763;42.714;23.244;2023-08-06T04:43:37;4.40;;;3.13;;
11414;SDS011;5763;42.714;23.244;2023-08-06T04:46:05;3.42;;;2.65;;
11414;SDS011;5763;42.714;23.244;2023-08-06T04:48:31;4.72;;;3.50;;
11414;SDS011;5763;42.714;23.244;2023-08-06T04:50:58;3.63;;;3.00;;
11414;SDS011;5763;42.714;23.244;2023-08-06T04:53:25;2.75;;;2.55;;
11414;SDS011;5763;42.714;23.244;2023-08-06T04:55:52;3.20;;;2.63;;
11414;SDS011;5763;42.714;23.244;2023-08-06T04:58:18;3.97;;;2.97;;
11414;SDS011;5763;42.714;23.244;2023-08-06T05:00:45;4.82;;;2.80;;
11414;SDS011;5763;42.714;23.244;2023-08-06T05:03:13;3.80;;;3.50;;
11414;SDS011;5763;42.714;23.244;2023-08-06T05:05:40;5.47;;;4.00;;
11414;SDS011;5763;42.714;23.244;2023-08-06T05:08:07;4.20;;;3.80;;
11414;SDS011;5763;42.714;23.244;2023-08-06T05:10:33;5.72;;;3.97;;
11414;SDS011;5763;42.714;23.244;2023-08-06T05:13:00;4.72;;;4.32;;
11414;SDS011;5763;42.714;23.244;2023-08-06T05:15:27;7.13;;;4.60;;
11414;SDS011;5763;42.714;23.244;2023-08-06T05:17:53;6.55;;;5.85;;
11414;SDS011;5763;42.714;23.244;2023-08-06T05:20:22;6.38;;;5.78;;
11414;SDS011;5763;42.714;23.244;2023-08-06T05:22:48;6.60;;;5.40;;
11414;SDS011;5763;42.714;23.244;2023-08-06T05:25:16;6.53;;;5.93;;
11414;SDS011;5763;42.714;23.244;2023-08-06T05:27:43;7.78;;;6.97;;
11414;SDS011;5763;42.714;23.244;2023-08-06T05:30:10;6.80;;;6.10;;
11414;SDS011;5763;42.714;23.244;2023-08-06T05:32:37;7.90;;;6.03;;
11414;SDS011;5763;42.714;23.244;2023-08-06T05:35:04;4.85;;;4.45;;
11414;SDS011;5763;42.714;23.244;2023-08-06T05:37:32;4.45;;;4.05;;
11414;SDS011;5763;42.714;23.244;2023-08-06T05:39:59;3.90;;;3.60;;
11414;SDS011;5763;42.714;23.244;2023-08-06T05:42:26;3.58;;;3.20;;
11414;SDS011;5763;42.714;23.244;2023-08-06T05:44:53;3.42;;;3.13;;
11414;SDS011;5763;42.714;23.244;2023-08-06T05:47:20;3.33;;;3.03;;
11414;SDS011;5763;42.714;23.244;2023-08-06T05:49:47;4.05;;;2.90;;
11414;SDS011;5763;42.714;23.244;2023-08-06T05:52:13;3.30;;;3.00;;
11414;SDS011;5763;42.714;23.244;2023-08-06T05:54:41;2.85;;;2.53;;
11414;SDS011;5763;42.714;23.244;2023-08-06T05:57:08;2.38;;;2.15;;
11414;SDS011;5763;42.714;23.244;2023-08-06T05:59:35;2.15;;;1.90;;
11414;SDS011;5763;42.714;23.244;2023-08-06T06:02:02;1.77;;;1.67;;
11414;SDS011;5763;42.714;23.244;2023-08-06T06:04:29;2.10;;;1.77;;
11414;SDS011;5763;42.714;23.244;2023-08-06T06:06:55;2.55;;;2.20;;
11414;SDS011;5763;42.714;23.244;2023-08-06T06:09:22;3.00;;;2.35;;
11414;SDS011;5763;42.714;23.244;2023-08-06T06:11:51;2.78;;;1.48;;
11414;SDS011;5763;42.714;23.244;2023-08-06T06:14:17;1.88;;;1.75;;
11414;SDS011;5763;42.714;23.244;2023-08-06T06:16:44;2.72;;;1.90;;
11414;SDS011;5763;42.714;23.244;2023-08-06T06:19:11;2.45;;;1.60;;
11414;SDS011;5763;42.714;23.244;2023-08-06T06:21:38;3.97;;;2.60;;
11414;SDS011;5763;42.714;23.244;2023-08-06T06:24:05;4.05;;;3.00;;
11414;SDS011;5763;42.714;23.244;2023-08-06T06:26:33;2.35;;;1.85;;
11414;SDS011;5763;42.714;23.244;2023-08-06T06:29:01;2.35;;;1.80;;
11414;SDS011;5763;42.714;23.244;2023-08-06T06:31:28;3.10;;;2.88;;
11414;SDS011;5763;42.714;23.244;2023-08-06T06:33:54;5.40;;;2.65;;
11414;SDS011;5763;42.714;23.244;2023-08-06T06:36:21;4.35;;;2.58;;
11414;SDS011;5763;42.714;23.244;2023-08-06T06:38:48;4.38;;;3.58;;
11414;SDS011;5763;42.714;23.244;2023-08-06T06:41:16;4.03;;;3.50;;
11414;SDS011;5763;42.714;23.244;2023-08-06T06:43:42;2.90;;;2.60;;
11414;SDS011;5763;42.714;23.244;2023-08-06T06:46:10;2.70;;;2.15;;
11414;SDS011;5763;42.714;23.244;2023-08-06T06:48:37;2.28;;;2.08;;
11414;SDS011;5763;42.714;23.244;2023-08-06T06:51:04;2.20;;;2.00;;
11414;SDS011;5763;42.714;23.244;2023-08-06T06:53:31;2.50;;;2.30;;
11414;SDS011;5763;42.714;23.244;2023-08-06T06:56:01;3.22;;;2.78;;
11414;SDS011;5763;42.714;23.244;2023-08-06T06:58:28;2.45;;;2.10;;
11414;SDS011;5763;42.714;23.244;2023-08-06T07:00:55;3.17;;;2.50;;
11414;SDS011;5763;42.714;23.244;2023-08-06T07:03:23;4.72;;;2.55;;
11414;SDS011;5763;42.714;23.244;2023-08-06T07:05:50;2.55;;;2.35;;
11414;SDS011;5763;42.714;23.244;2023-08-06T07:08:17;2.40;;;2.20;;
11414;SDS011;5763;42.714;23.244;2023-08-06T07:10:44;2.55;;;2.20;;
11414;SDS011;5763;42.714;23.244;2023-08-06T07:13:10;2.50;;;2.30;;
11414;SDS011;5763;42.714;23.244;2023-08-06T07:15:37;2.80;;;2.45;;
11414;SDS011;5763;42.714;23.244;2023-08-06T07:18:04;3.45;;;2.50;;
11414;SDS011;5763;42.714;23.244;2023-08-06T07:20:32;4.82;;;2.75;;
11414;SDS011;5763;42.714;23.244;2023-08-06T07:22:59;3.00;;;2.50;;
11414;SDS011;5763;42.714;23.244;2023-08-06T07:25:27;2.75;;;2.55;;
11414;SDS011;5763;42.714;23.244;2023-08-06T07:27:53;3.40;;;3.10;;
11414;SDS011;5763;42.714;23.244;2023-08-06T07:30:21;2.40;;;2.03;;
11414;SDS011;5763;42.714;23.244;2023-08-06T07:32:48;2.95;;;2.65;;
11414;SDS011;5763;42.714;23.244;2023-08-06T07:35:15;6.22;;;4.35;;
11414;SDS011;5763;42.714;23.244;2023-08-06T07:37:43;3.15;;;2.78;;
11414;SDS011;5763;42.714;23.244;2023-08-06T07:40:10;2.60;;;2.28;;
11414;SDS011;5763;42.714;23.244;2023-08-06T07:42:37;3.08;;;2.30;;
11414;SDS011;5763;42.714;23.244;2023-08-06T07:45:04;2.80;;;2.47;;
11414;SDS011;5763;42.714;23.244;2023-08-06T07:47:32;3.42;;;2.60;;
11414;SDS011;5763;42.714;23.244;2023-08-06T07:49:58;4.22;;;2.50;;
11414;SDS011;5763;42.714;23.244;2023-08-06T07:52:25;2.58;;;2.22;;
11414;SDS011;5763;42.714;23.244;2023-08-06T07:54:53;2.70;;;2.33;;
11414;SDS011;5763;42.714;23.244;2023-08-06T07:57:20;3.00;;;2.80;;
11414;SDS011;5763;42.714;23.244;2023-08-06T07:59:47;3.28;;;2.97;;
11414;SDS011;5763;42.714;23.244;2023-08-06T08:02:14;4.25;;;3.85;;
11414;SDS011;5763;42.714;23.244;2023-08-06T08:04:41;3.13;;;2.60;;
11414;SDS011;5763;42.714;23.244;2023-08-06T08:07:09;2.97;;;2.78;;
11414;SDS011;5763;42.714;23.244;2023-08-06T08:09:36;3.90;;;2.50;;
11414;SDS011;5763;42.714;23.244;2023-08-06T08:12:05;2.78;;;2.58;;
11414;SDS011;5763;42.714;23.244;2023-08-06T08:14:32;3.70;;;3.40;;
11414;SDS011;5763;42.714;23.244;2023-08-06T08:17:01;3.00;;;2.80;;
11414;SDS011;5763;42.714;23.244;2023-08-06T08:19:28;3.30;;;2.75;;
11414;SDS011;5763;42.714;23.244;2023-08-06T08:21:55;2.42;;;2.22;;
11414;SDS011;5763;42.714;23.244;2023-08-06T08:24:22;3.13;;;2.83;;
11414;SDS011;5763;42.714;23.244;2023-08-06T08:26:49;3.20;;;2.33;;
11414;SDS011;5763;42.714;23.244;2023-08-06T08:29:17;3.50;;;3.20;;
11414;SDS011;5763;42.714;23.244;2023-08-06T08:31:45;3.75;;;3.38;;
11414;SDS011;5763;42.714;23.244;2023-08-06T08:34:15;4.20;;;3.80;;
11414;SDS011;5763;42.714;23.244;2023-08-06T08:36:41;5.57;;;2.67;;
11414;SDS011;5763;42.714;23.244;2023-08-06T08:39:08;8.18;;;7.38;;
11414;SDS011;5763;42.714;23.244;2023-08-06T08:41:36;6.05;;;5.25;;
11414;SDS011;5763;42.714;23.244;2023-08-06T08:44:03;4.43;;;3.30;;
11414;SDS011;5763;42.714;23.244;2023-08-06T08:46:36;2.70;;;2.50;;
11414;SDS011;5763;42.714;23.244;2023-08-06T08:49:04;4.32;;;3.92;;
11414;SDS011;5763;42.714;23.244;2023-08-06T08:51:32;3.20;;;3.00;;
11414;SDS011;5763;42.714;23.244;2023-08-06T08:53:59;3.88;;;3.42;;
11414;SDS011;5763;42.714;23.244;2023-08-06T08:56:28;4.20;;;3.10;;
11414;SDS011;5763;42.714;23.244;2023-08-06T08:58:55;3.40;;;3.10;;
11414;SDS011;5763;42.714;23.244;2023-08-06T09:01:22;5.30;;;4.80;;
11414;SDS011;5763;42.714;23.244;2023-08-06T09:03:51;3.45;;;3.15;;
11414;SDS011;5763;42.714;23.244;2023-08-06T09:06:20;2.65;;;2.30;;
11414;SDS011;5763;42.714;23.244;2023-08-06T09:08:51;2.40;;;2.20;;
11414;SDS011;5763;42.714;23.244;2023-08-06T09:11:27;4.72;;;3.03;;
11414;SDS011;5763;42.714;23.244;2023-08-06T09:13:56;5.03;;;4.57;;
11414;SDS011;5763;42.714;23.244;2023-08-06T09:16:24;2.72;;;2.33;;
11414;SDS011;5763;42.714;23.244;2023-08-06T09:18:52;2.78;;;2.33;;
11414;SDS011;5763;42.714;23.244;2023-08-06T09:21:19;4.18;;;3.65;;
11414;SDS011;5763;42.714;23.244;2023-08-06T09:23:46;2.40;;;2.00;;
11414;SDS011;5763;42.714;23.244;2023-08-06T09:26:13;2.78;;;2.20;;
11414;SDS011;5763;42.714;23.244;2023-08-06T09:28:39;2.20;;;2.00;;
11414;SDS011;5763;42.714;23.244;2023-08-06T09:31:08;2.50;;;2.00;;
11414;SDS011;5763;42.714;23.244;2023-08-06T09:33:35;2.72;;;2.50;;
11414;SDS011;5763;42.714;23.244;2023-08-06T09:36:11;2.38;;;2.17;;
11414;SDS011;5763;42.714;23.244;2023-08-06T09:38:38;3.22;;;2.40;;
11414;SDS011;5763;42.714;23.244;2023-08-06T09:41:06;1.98;;;1.60;;
11414;SDS011;5763;42.714;23.244;2023-08-06T09:43:39;2.13;;;1.77;;
11414;SDS011;5763;42.714;23.244;2023-08-06T09:46:10;3.60;;;3.30;;
11414;SDS011;5763;42.714;23.244;2023-08-06T09:48:39;3.60;;;2.00;;
11414;SDS011;5763;42.714;23.244;2023-08-06T09:51:07;1.85;;;1.75;;
11414;SDS011;5763;42.714;23.244;2023-08-06T09:53:36;1.92;;;1.83;;
11414;SDS011;5763;42.714;23.244;2023-08-06T09:56:04;2.38;;;1.83;;
11414;SDS011;5763;42.714;23.244;2023-08-06T09:58:31;2.17;;;2.00;;
11414;SDS011;5763;42.714;23.244;2023-08-06T10:00:58;2.75;;;2.10;;
11414;SDS011;5763;42.714;23.244;2023-08-06T10:03:26;4.40;;;2.58;;
11414;SDS011;5763;42.714;23.244;2023-08-06T10:05:55;4.07;;;2.08;;
11414;SDS011;5763;42.714;23.244;2023-08-06T10:08:22;3.22;;;2.35;;
11414;SDS011;5763;42.714;23.244;2023-08-06T10:10:50;3.78;;;2.33;;
11414;SDS011;5763;42.714;23.244;2023-08-06T10:13:18;2.40;;;2.20;;
11414;SDS011;5763;42.714;23.244;2023-08-06T10:15:48;5.00;;;4.20;;
11414;SDS011;5763;42.714;23.244;2023-08-06T10:18:16;6.03;;;5.30;;
11414;SDS011;5763;42.714;23.244;2023-08-06T10:20:46;4.07;;;3.63;;
11414;SDS011;5763;42.714;23.244;2023-08-06T10:23:13;3.40;;;3.10;;
11414;SDS011;5763;42.714;23.244;2023-08-06T10:25:40;7.40;;;6.57;;
11414;SDS011;5763;42.714;23.244;2023-08-06T10:28:11;4.90;;;4.47;;
11414;SDS011;5763;42.714;23.244;2023-08-06T10:30:41;6.07;;;5.10;;
11414;SDS011;5763;42.714;23.244;2023-08-06T10:33:10;4.35;;;3.95;;
11414;SDS011;5763;42.714;23.244;2023-08-06T10:35:38;7.82;;;6.35;;
11414;SDS011;5763;42.714;23.244;2023-08-06T10:38:09;6.18;;;5.40;;
11414;SDS011;5763;42.714;23.244;2023-08-06T10:40:37;5.43;;;4.75;;
11414;SDS011;5763;42.714;23.244;2023-08-06T10:43:06;4.20;;;3.75;;
11414;SDS011;5763;42.714;23.244;2023-08-06T10:45:36;4.03;;;3.20;;
11414;SDS011;5763;42.714;23.244;2023-08-06T10:48:04;3.08;;;2.80;;
11414;SDS011;5763;42.714;23.244;2023-08-06T10:50:31;2.38;;;2.17;;
11414;SDS011;5763;42.714;23.244;2023-08-06T10:52:58;2.63;;;2.42;;
11414;SDS011;5763;42.714;23.244;2023-08-06T10:55:31;3.28;;;2.45;;
11414;SDS011;5763;42.714;23.244;2023-08-06T10:57:58;2.60;;;2.40;;
11414;SDS011;5763;42.714;23.244;2023-08-06T11:00:24;5.25;;;4.28;;
11414;SDS011;5763;42.714;23.244;2023-08-06T11:02:53;5.88;;;3.72;;
11414;SDS011;5763;42.714;23.244;2023-08-06T11:05:20;4.43;;;4.03;;
11414;SDS011;5763;42.714;23.244;2023-08-06T11:07:47;5.88;;;5.38;;
11414;SDS011;5763;42.714;23.244;2023-08-06T11:10:16;4.32;;;3.92;;
11414;SDS011;5763;42.714;23.244;2023-08-06T11:12:43;4.30;;;3.90;;
11414;SDS011;5763;42.714;23.244;2023-08-06T11:15:10;4.72;;;4.28;;
11414;SDS011;5763;42.714;23.244;2023-08-06T11:17:37;4.70;;;4.30;;
11414;SDS011;5763;42.714;23.244;2023-08-06T11:20:08;4.03;;;3.65;;
11414;SDS011;5763;42.714;23.244;2023-08-06T11:22:36;3.95;;;3.50;;
11414;SDS011;5763;42.714;23.244;2023-08-06T11:25:05;4.60;;;3.75;;
11414;SDS011;5763;42.714;23.244;2023-08-06T11:27:32;4.50;;;3.42;;
11414;SDS011;5763;42.714;23.244;2023-08-06T11:29:59;3.75;;;3.03;;
11414;SDS011;5763;42.714;23.244;2023-08-06T11:32:26;3.28;;;2.83;;
11414;SDS011;5763;42.714;23.244;2023-08-06T11:34:53;3.53;;;3.17;;
11414;SDS011;5763;42.714;23.244;2023-08-06T11:37:22;3.80;;;3.42;;
11414;SDS011;5763;42.714;23.244;2023-08-06T11:39:50;3.20;;;2.90;;
11414;SDS011;5763;42.714;23.244;2023-08-06T11:42:17;3.40;;;3.10;;
11414;SDS011;5763;42.714;23.244;2023-08-06T11:44:44;3.55;;;3.25;;
11414;SDS011;5763;42.714;23.244;2023-08-06T11:47:14;3.30;;;3.00;;
11414;SDS011;5763;42.714;23.244;2023-08-06T11:49:42;3.53;;;3.22;;
11414;SDS011;5763;42.714;23.244;2023-08-06T11:52:12;3.45;;;3.08;;
11414;SDS011;5763;42.714;23.244;2023-08-06T11:54:42;3.42;;;3.13;;
11414;SDS011;5763;42.714;23.244;2023-08-06T11:57:08;4.05;;;3.65;;
11414;SDS011;5763;42.714;23.244;2023-08-06T11:59:36;4.00;;;3.60;;
11414;SDS011;5763;42.714;23.244;2023-08-06T12:02:04;3.88;;;3.42;;
11414;SDS011;5763;42.714;23.244;2023-08-06T12:07:26;4.18;;;3.78;;
11414;SDS011;5763;42.714;23.244;2023-08-06T12:09:56;5.35;;;3.90;;
11414;SDS011;5763;42.714;23.244;2023-08-06T12:12:23;4.38;;;4.07;;
11414;SDS011;5763;42.714;23.244;2023-08-06T12:14:50;4.47;;;4.07;;
11414;SDS011;5763;42.714;23.244;2023-08-06T12:17:17;6.50;;;4.55;;
11414;SDS011;5763;42.714;23.244;2023-08-06T12:19:44;5.28;;;4.40;;
11414;SDS011;5763;42.714;23.244;2023-08-06T12:22:12;6.35;;;5.75;;
11414;SDS011;5763;42.714;23.244;2023-08-06T12:24:40;5.22;;;4.78;;
11414;SDS011;5763;42.714;23.244;2023-08-06T12:27:09;6.40;;;5.03;;
11414;SDS011;5763;42.714;23.244;2023-08-06T12:29:37;5.60;;;5.10;;
11414;SDS011;5763;42.714;23.244;2023-08-06T12:32:06;5.95;;;5.45;;
11414;SDS011;5763;42.714;23.244;2023-08-06T12:34:33;5.60;;;5.10;;
11414;SDS011;5763;42.714;23.244;2023-08-06T12:37:00;6.50;;;5.90;;
11414;SDS011;5763;42.714;23.244;2023-08-06T12:39:27;5.75;;;5.25;;
11414;SDS011;5763;42.714;23.244;2023-08-06T12:41:54;5.97;;;4.85;;
11414;SDS011;5763;42.714;23.244;2023-08-06T12:44:24;5.18;;;4.68;;
11414;SDS011;5763;42.714;23.244;2023-08-06T12:46:50;5.65;;;5.13;;
11414;SDS011;5763;42.714;23.244;2023-08-06T12:49:17;4.72;;;4.30;;
11414;SDS011;5763;42.714;23.244;2023-08-06T12:51:46;5.38;;;4.88;;
11414;SDS011;5763;42.714;23.244;2023-08-06T12:54:12;5.50;;;4.93;;
11414;SDS011;5763;42.714;23.244;2023-08-06T12:56:39;4.82;;;4.35;;
11414;SDS011;5763;42.714;23.244;2023-08-06T12:59:06;5.15;;;4.50;;
11414;SDS011;5763;42.714;23.244;2023-08-06T13:01:34;4.10;;;3.80;;
11414;SDS011;5763;42.714;23.244;2023-08-06T13:04:01;4.90;;;4.40;;
11414;SDS011;5763;42.714;23.244;2023-08-06T13:06:28;4.60;;;4.20;;
11414;SDS011;5763;42.714;23.244;2023-08-06T13:08:55;5.70;;;5.20;;
11414;SDS011;5763;42.714;23.244;2023-08-06T13:11:23;5.53;;;4.82;;
11414;SDS011;5763;42.714;23.244;2023-08-06T13:13:50;7.28;;;4.40;;
11414;SDS011;5763;42.714;23.244;2023-08-06T13:16:17;4.45;;;4.05;;
11414;SDS011;5763;42.714;23.244;2023-08-06T13:18:45;5.60;;;4.40;;
11414;SDS011;5763;42.714;23.244;2023-08-06T13:21:11;5.20;;;4.70;;
11414;SDS011;5763;42.714;23.244;2023-08-06T13:23:38;5.13;;;4.00;;
11414;SDS011;5763;42.714;23.244;2023-08-06T13:26:05;4.65;;;4.25;;
11414;SDS011;5763;42.714;23.244;2023-08-06T13:28:32;5.32;;;4.82;;
11414;SDS011;5763;42.714;23.244;2023-08-06T13:30:59;6.53;;;6.00;;
11414;SDS011;5763;42.714;23.244;2023-08-06T13:33:25;6.65;;;5.10;;
11414;SDS011;5763;42.714;23.244;2023-08-06T13:35:54;7.00;;;6.40;;
11414;SDS011;5763;42.714;23.244;2023-08-06T13:38:21;5.28;;;4.78;;
11414;SDS011;5763;42.714;23.244;2023-08-06T13:40:47;5.53;;;5.10;;
11414;SDS011;5763;42.714;23.244;2023-08-06T13:43:14;5.35;;;4.80;;
11414;SDS011;5763;42.714;23.244;2023-08-06T13:45:44;6.88;;;4.78;;
11414;SDS011;5763;42.714;23.244;2023-08-06T13:48:11;4.88;;;4.43;;
11414;SDS011;5763;42.714;23.244;2023-08-06T13:50:39;4.43;;;4.03;;
11414;SDS011;5763;42.714;23.244;2023-08-06T13:53:07;6.82;;;6.15;;
11414;SDS011;5763;42.714;23.244;2023-08-06T13:55:34;7.32;;;6.68;;
11414;SDS011;5763;42.714;23.244;2023-08-06T13:58:01;5.20;;;4.35;;
11414;SDS011;5763;42.714;23.244;2023-08-06T14:00:27;4.53;;;4.13;;
11414;SDS011;5763;42.714;23.244;2023-08-06T14:02:54;3.67;;;3.38;;
11414;SDS011;5763;42.714;23.244;2023-08-06T14:05:21;4.97;;;3.83;;
11414;SDS011;5763;42.714;23.244;2023-08-06T14:07:47;5.28;;;4.65;;
11414;SDS011;5763;42.714;23.244;2023-08-06T14:10:16;4.47;;;3.90;;
11414;SDS011;5763;42.714;23.244;2023-08-06T14:12:42;4.38;;;3.97;;
11414;SDS011;5763;42.714;23.244;2023-08-06T14:15:10;4.35;;;3.45;;
11414;SDS011;5763;42.714;23.244;2023-08-06T14:17:37;3.97;;;3.40;;
11414;SDS011;5763;42.714;23.244;2023-08-06T14:20:04;4.55;;;3.53;;
11414;SDS011;5763;42.714;23.244;2023-08-06T14:22:36;3.70;;;3.15;;
11414;SDS011;5763;42.714;23.244;2023-08-06T14:25:03;6.22;;;3.88;;
11414;SDS011;5763;42.714;23.244;2023-08-06T14:27:33;3.88;;;3.47;;
11414;SDS011;5763;42.714;23.244;2023-08-06T14:30:00;4.00;;;3.70;;
11414;SDS011;5763;42.714;23.244;2023-08-06T14:32:28;5.30;;;3.97;;
11414;SDS011;5763;42.714;23.244;2023-08-06T14:34:55;4.63;;;3.70;;
11414;SDS011;5763;42.714;23.244;2023-08-06T14:37:22;4.28;;;3.88;;
11414;SDS011;5763;42.714;23.244;2023-08-06T14:39:49;5.30;;;3.90;;
11414;SDS011;5763;42.714;23.244;2023-08-06T14:42:16;3.92;;;3.63;;
11414;SDS011;5763;42.714;23.244;2023-08-06T14:44:44;4.10;;;3.70;;
11414;SDS011;5763;42.714;23.244;2023-08-06T14:47:11;4.90;;;4.13;;
11414;SDS011;5763;42.714;23.244;2023-08-06T14:49:38;4.10;;;3.70;;
11414;SDS011;5763;42.714;23.244;2023-08-06T14:52:05;3.45;;;3.15;;